createdAt,value
2018-12-19T00:00:56.020Z,13.30
2018-12-19T00:03:22.434Z,13.83
2018-12-19T00:05:48.962Z,13.17
2018-12-19T00:08:15.340Z,14.67
2018-12-19T00:10:41.757Z,14.03
2018-12-19T00:13:10.160Z,12.63
2018-12-19T00:15:36.765Z,14.07
2018-12-19T00:18:03.130Z,12.47
2018-12-19T00:20:29.553Z,12.70
2018-12-19T00:22:55.925Z,12.70
2018-12-19T00:25:22.292Z,13.17
2018-12-19T00:27:48.766Z,12.70
2018-12-19T00:30:15.199Z,12.53
2018-12-19T00:32:41.931Z,14.00
2018-12-19T00:35:08.291Z,12.90
2018-12-19T00:37:34.932Z,14.70
2018-12-19T00:40:01.369Z,13.30
2018-12-19T00:42:27.738Z,13.27
2018-12-19T00:44:54.109Z,12.50
2018-12-19T00:47:20.605Z,13.33
2018-12-19T00:49:47.032Z,14.43
2018-12-19T00:52:13.553Z,14.80
2018-12-19T00:54:40.096Z,13.67
2018-12-19T00:57:06.457Z,12.83
2018-12-19T00:59:35.678Z,14.77
2018-12-19T01:02:08.196Z,12.87
2018-12-19T01:04:34.541Z,13.50
2018-12-19T01:07:00.940Z,13.00
2018-12-19T01:09:42.493Z,13.40
2018-12-19T01:12:08.907Z,12.57
2018-12-19T01:14:35.486Z,14.17
2018-12-19T01:17:01.861Z,13.80
2018-12-19T01:19:28.227Z,13.37
2018-12-19T01:21:54.573Z,12.23
2018-12-19T01:24:20.986Z,14.10
2018-12-19T01:26:47.372Z,12.87
2018-12-19T01:29:13.737Z,12.63
2018-12-19T01:31:40.165Z,12.40
2018-12-19T01:34:06.541Z,11.67
2018-12-19T01:36:32.955Z,12.43
2018-12-19T01:38:59.290Z,13.23
2018-12-19T01:41:25.648Z,13.17
2018-12-19T01:43:52.342Z,11.83
2018-12-19T01:46:18.683Z,13.10
2018-12-19T01:48:45.083Z,11.87
2018-12-19T01:51:11.609Z,12.97
2018-12-19T01:53:37.972Z,13.53
2018-12-19T01:56:04.572Z,12.37
2018-12-19T01:58:30.969Z,13.70
2018-12-19T02:00:57.342Z,11.77
2018-12-19T02:03:23.698Z,11.17
2018-12-19T02:05:50.083Z,10.73
2018-12-19T02:08:16.477Z,12.30
2018-12-19T02:10:42.759Z,11.47
2018-12-19T02:13:09.188Z,11.50
2018-12-19T02:15:35.629Z,11.37
2018-12-19T02:18:02.072Z,11.37
2018-12-19T02:20:28.504Z,12.17
2018-12-19T02:22:54.935Z,11.23
2018-12-19T02:25:21.417Z,11.13
2018-12-19T02:27:47.878Z,10.90
2018-12-19T02:30:14.255Z,11.37
2018-12-19T02:32:40.613Z,10.90
2018-12-19T02:35:06.946Z,10.47
2018-12-19T02:37:33.366Z,9.87
2018-12-19T02:39:59.772Z,11.37
2018-12-19T02:42:26.147Z,10.53
2018-12-19T02:44:52.648Z,11.67
2018-12-19T02:47:19.087Z,11.30
2018-12-19T02:49:45.492Z,10.87
2018-12-19T02:52:11.957Z,10.73
2018-12-19T02:54:38.502Z,11.27
2018-12-19T02:57:04.875Z,11.03
2018-12-19T02:59:31.322Z,12.70
2018-12-19T03:01:57.726Z,10.70
2018-12-19T03:04:24.172Z,10.87
2018-12-19T03:06:50.568Z,10.80
2018-12-19T03:09:16.963Z,10.80
2018-12-19T03:11:43.452Z,10.90
2018-12-19T03:14:09.813Z,10.87
2018-12-19T03:16:36.357Z,9.50
2018-12-19T03:19:02.783Z,11.90
2018-12-19T03:21:29.193Z,10.83
2018-12-19T03:23:55.569Z,10.30
2018-12-19T03:26:22.131Z,10.27
2018-12-19T03:28:48.509Z,9.33
2018-12-19T03:31:14.918Z,10.67
2018-12-19T03:33:41.356Z,11.07
2018-12-19T03:36:07.757Z,10.93
2018-12-19T03:38:34.144Z,9.93
2018-12-19T03:41:00.651Z,9.60
2018-12-19T03:43:27.063Z,10.13
2018-12-19T03:45:53.558Z,9.03
2018-12-19T03:48:26.189Z,10.90
2018-12-19T03:50:52.547Z,9.57
2018-12-19T03:53:18.983Z,9.80
2018-12-19T03:55:45.547Z,9.20
2018-12-19T03:58:11.973Z,9.70
2018-12-19T04:00:38.584Z,10.27
2018-12-19T04:03:05.141Z,8.77
2018-12-19T04:05:31.572Z,9.37
2018-12-19T04:07:57.991Z,8.83
2018-12-19T04:10:24.352Z,9.10
2018-12-19T04:12:50.689Z,9.97
2018-12-19T04:15:17.231Z,9.73
2018-12-19T04:17:43.609Z,8.17
2018-12-19T04:20:09.928Z,10.37
2018-12-19T04:22:36.314Z,8.60
2018-12-19T04:25:02.985Z,10.03
2018-12-19T04:27:29.377Z,8.33
2018-12-19T04:29:56.009Z,8.60
2018-12-19T04:32:22.653Z,9.17
2018-12-19T04:34:49.365Z,8.87
2018-12-19T04:37:16.379Z,7.90
2018-12-19T04:39:43.490Z,7.70
2018-12-19T04:42:09.872Z,7.53
2018-12-19T04:44:36.483Z,8.03
2018-12-19T04:47:03.026Z,9.73
2018-12-19T04:49:29.440Z,8.03
2018-12-19T04:51:55.793Z,7.93
2018-12-19T04:54:22.253Z,8.93
2018-12-19T04:56:48.673Z,7.90
2018-12-19T04:59:15.118Z,7.87
2018-12-19T05:01:44.430Z,9.23
2018-12-19T05:04:11.729Z,9.40
2018-12-19T05:06:38.139Z,8.23
2018-12-19T05:09:05.709Z,8.27
2018-12-19T05:11:32.631Z,7.57
2018-12-19T05:13:59.064Z,9.93
2018-12-19T05:16:25.455Z,8.43
2018-12-19T05:18:51.892Z,8.53
2018-12-19T05:21:18.560Z,8.83
2018-12-19T05:23:45.467Z,9.00
2018-12-19T05:26:11.938Z,7.97
2018-12-19T05:28:38.299Z,8.30
2018-12-19T05:31:04.649Z,8.53
2018-12-19T05:33:31.094Z,8.67
2018-12-19T05:35:57.509Z,9.53
2018-12-19T05:38:23.847Z,9.83
2018-12-19T05:40:50.221Z,9.87
2018-12-19T05:43:16.591Z,8.03
2018-12-19T05:45:43.103Z,8.33
2018-12-19T05:48:09.500Z,8.63
2018-12-19T05:50:36.317Z,9.30
2018-12-19T05:53:02.695Z,9.10
2018-12-19T05:55:29.051Z,8.83
2018-12-19T05:57:55.415Z,8.27
2018-12-19T06:00:21.873Z,8.90
2018-12-19T06:02:48.318Z,9.47
2018-12-19T06:05:14.757Z,8.87
2018-12-19T06:07:41.247Z,9.90
2018-12-19T06:10:07.615Z,8.83
2018-12-19T06:12:34.053Z,9.80
2018-12-19T06:15:00.567Z,8.60
2018-12-19T06:17:27.004Z,9.20
2018-12-19T06:19:53.438Z,10.13
2018-12-19T06:22:19.826Z,9.87
2018-12-19T06:24:46.156Z,9.20
2018-12-19T06:27:12.573Z,10.17
2018-12-19T06:29:39.176Z,8.23
2018-12-19T06:32:05.587Z,8.97
2018-12-19T06:34:32.325Z,9.87
2018-12-19T06:36:58.830Z,10.27
2018-12-19T06:39:25.173Z,10.50
2018-12-19T06:41:51.603Z,9.27
2018-12-19T06:44:17.941Z,8.87
2018-12-19T06:46:44.343Z,9.50
2018-12-19T06:49:10.728Z,13.77
2018-12-19T06:51:37.317Z,10.57
2018-12-19T06:54:03.701Z,9.93
2018-12-19T06:56:30.091Z,9.93
2018-12-19T06:58:56.465Z,9.97
2018-12-19T07:01:22.892Z,10.17
2018-12-19T07:03:49.342Z,10.47
2018-12-19T07:06:15.737Z,9.07
2018-12-19T07:08:42.146Z,8.40
2018-12-19T07:11:08.528Z,9.77
2018-12-19T07:13:34.944Z,10.03
2018-12-19T07:16:01.402Z,9.80
2018-12-19T07:18:28.397Z,10.13
2018-12-19T07:20:54.885Z,9.87
2018-12-19T07:23:21.292Z,9.33
2018-12-19T07:25:47.821Z,9.33
2018-12-19T07:28:14.331Z,9.70
2018-12-19T07:30:40.721Z,8.33
2018-12-19T07:33:07.198Z,9.70
2018-12-19T07:35:33.550Z,8.23
2018-12-19T07:37:59.981Z,8.93
2018-12-19T07:40:26.357Z,9.47
2018-12-19T07:42:52.825Z,9.30
2018-12-19T07:45:19.175Z,8.27
2018-12-19T07:47:45.575Z,8.00
2018-12-19T07:50:12.007Z,7.47
2018-12-19T07:52:38.535Z,7.60
2018-12-19T07:55:05.309Z,8.43
2018-12-19T07:57:31.648Z,7.43
2018-12-19T07:59:58.042Z,7.17
2018-12-19T08:02:24.385Z,7.20
2018-12-19T08:07:43.389Z,7.73
2018-12-19T08:10:09.906Z,6.87
2018-12-19T08:12:36.950Z,6.27
2018-12-19T08:15:03.564Z,6.43
2018-12-19T08:17:29.982Z,6.50
2018-12-19T08:19:56.398Z,7.60
2018-12-19T08:22:22.788Z,7.70
2018-12-19T08:25:04.156Z,7.33
2018-12-19T08:27:30.570Z,7.17
2018-12-19T08:29:56.910Z,5.90
2018-12-19T08:32:23.334Z,7.20
2018-12-19T08:34:49.723Z,6.53
2018-12-19T08:37:16.153Z,8.33
2018-12-19T08:39:42.542Z,8.40
2018-12-19T08:42:08.997Z,7.40
2018-12-19T08:44:35.426Z,8.17
2018-12-19T08:47:01.883Z,8.97
2018-12-19T08:49:28.424Z,8.27
2018-12-19T08:51:54.827Z,8.00
2018-12-19T08:54:21.267Z,7.70
2018-12-19T08:56:47.782Z,8.13
2018-12-19T08:59:14.255Z,7.40
2018-12-19T09:01:40.662Z,7.13
2018-12-19T09:04:07.085Z,7.00
2018-12-19T09:06:33.730Z,7.03
2018-12-19T09:09:00.115Z,8.23
2018-12-19T09:11:26.585Z,7.23
2018-12-19T09:13:52.980Z,8.23
2018-12-19T09:16:19.398Z,7.00
2018-12-19T09:18:45.737Z,8.30
2018-12-19T09:21:12.146Z,8.10
2018-12-19T09:23:38.617Z,7.70
2018-12-19T09:26:05.124Z,7.63
2018-12-19T09:28:31.560Z,9.33
2018-12-19T09:30:58.003Z,8.00
2018-12-19T09:33:27.390Z,8.47
2018-12-19T09:35:52.886Z,9.10
2018-12-19T09:38:19.257Z,8.73
2018-12-19T09:40:45.688Z,7.93
2018-12-19T09:43:12.087Z,8.17
2018-12-19T09:45:38.447Z,7.77
2018-12-19T09:48:04.924Z,7.93
2018-12-19T09:50:31.277Z,7.87
2018-12-19T09:52:57.838Z,7.43
2018-12-19T09:55:24.242Z,8.43
2018-12-19T09:57:50.566Z,8.73
2018-12-19T10:00:23.000Z,7.53
2018-12-19T10:02:49.446Z,7.80
2018-12-19T10:05:15.983Z,7.67
2018-12-19T10:07:42.369Z,7.17
2018-12-19T10:10:08.725Z,7.33
2018-12-19T10:12:35.071Z,6.57
2018-12-19T10:15:01.531Z,7.17
2018-12-19T10:17:27.917Z,6.07
2018-12-19T10:19:54.300Z,7.60
2018-12-19T10:22:26.851Z,7.17
2018-12-19T10:24:59.935Z,6.90
2018-12-19T10:27:27.302Z,6.77
2018-12-19T10:29:53.668Z,6.63
2018-12-19T10:32:20.215Z,6.77
2018-12-19T10:34:46.632Z,6.70
2018-12-19T10:37:13.038Z,6.83
2018-12-19T10:39:39.525Z,9.63
2018-12-19T10:42:05.928Z,7.70
2018-12-19T10:44:32.323Z,8.03
2018-12-19T10:46:58.833Z,8.23
2018-12-19T10:49:25.237Z,8.63
2018-12-19T10:51:51.938Z,7.77
2018-12-19T10:54:18.282Z,8.40
2018-12-19T10:56:44.697Z,6.57
2018-12-19T10:59:11.563Z,7.03
2018-12-19T11:01:38.086Z,7.70
2018-12-19T11:04:04.416Z,6.30
2018-12-19T11:06:30.806Z,6.93
2018-12-19T11:08:57.174Z,7.70
2018-12-19T11:11:23.639Z,7.20
2018-12-19T11:13:50.124Z,6.90
2018-12-19T11:16:16.587Z,7.47
2018-12-19T11:18:42.917Z,5.20
2018-12-19T11:21:09.713Z,6.20
2018-12-19T11:23:36.141Z,6.70
2018-12-19T11:26:02.542Z,6.20
2018-12-19T11:28:28.919Z,6.00
2018-12-19T11:30:55.311Z,6.00
2018-12-19T11:33:21.670Z,7.13
2018-12-19T11:35:48.063Z,6.83
2018-12-19T11:38:14.421Z,6.83
2018-12-19T11:40:40.968Z,6.33
2018-12-19T11:43:07.353Z,6.60
2018-12-19T11:45:33.833Z,6.60
2018-12-19T11:48:00.225Z,5.67
2018-12-19T11:50:26.606Z,6.87
2018-12-19T11:52:52.969Z,6.57
2018-12-19T11:55:19.323Z,6.23
2018-12-19T11:57:45.745Z,6.20
2018-12-19T12:00:12.138Z,6.33
2018-12-19T12:02:38.537Z,7.23
2018-12-19T12:05:05.126Z,6.40
2018-12-19T12:07:31.552Z,6.00
2018-12-19T12:09:57.917Z,7.03
2018-12-19T12:12:24.301Z,7.80
2018-12-19T12:14:50.758Z,6.80
2018-12-19T12:17:17.155Z,5.57
2018-12-19T12:19:43.672Z,6.73
2018-12-19T12:22:10.099Z,6.17
2018-12-19T12:27:31.032Z,5.77
2018-12-19T12:29:57.459Z,7.23
2018-12-19T12:32:23.953Z,6.30
2018-12-19T12:34:50.428Z,8.10
2018-12-19T12:37:16.840Z,6.53
2018-12-19T12:39:43.281Z,6.00
2018-12-19T12:42:09.849Z,7.10
2018-12-19T12:44:36.501Z,7.10
2018-12-19T12:47:03.133Z,7.50
2018-12-19T12:49:29.449Z,8.23
2018-12-19T12:51:55.865Z,7.83
2018-12-19T12:54:22.337Z,7.50
2018-12-19T12:56:48.698Z,7.63
2018-12-19T13:02:09.643Z,6.93
2018-12-19T13:04:36.005Z,7.80
2018-12-19T13:07:02.351Z,7.33
2018-12-19T13:09:28.845Z,7.93
2018-12-19T13:11:58.785Z,7.40
2018-12-19T13:14:23.814Z,7.23
2018-12-19T13:16:50.146Z,7.93
2018-12-19T13:19:16.534Z,8.87
2018-12-19T13:21:43.095Z,8.00
2018-12-19T13:24:09.456Z,8.07
2018-12-19T13:26:35.849Z,9.33
2018-12-19T13:29:02.311Z,7.67
2018-12-19T13:31:28.803Z,6.37
2018-12-19T13:33:55.209Z,7.77
2018-12-19T13:36:21.593Z,7.10
2018-12-19T13:38:48.053Z,7.03
2018-12-19T13:41:14.385Z,6.87
2018-12-19T13:43:40.819Z,6.37
2018-12-19T13:46:07.869Z,6.83
2018-12-19T13:48:34.321Z,6.83
2018-12-19T13:51:00.685Z,7.03
2018-12-19T13:53:27.167Z,7.10
2018-12-19T13:55:53.499Z,7.03
2018-12-19T13:58:20.169Z,7.07
2018-12-19T14:00:46.628Z,6.10
2018-12-19T14:03:13.054Z,7.33
2018-12-19T14:05:39.460Z,7.10
2018-12-19T14:08:05.858Z,8.50
2018-12-19T14:10:32.287Z,7.83
2018-12-19T14:12:58.952Z,7.03
2018-12-19T14:15:40.357Z,6.90
2018-12-19T14:18:06.766Z,7.77
2018-12-19T14:20:33.229Z,9.80
2018-12-19T14:22:59.612Z,7.97
2018-12-19T14:25:26.061Z,7.33
2018-12-19T14:27:52.569Z,6.47
2018-12-19T14:30:18.998Z,7.20
2018-12-19T14:32:45.377Z,7.17
2018-12-19T14:35:12.016Z,8.47
2018-12-19T14:37:38.453Z,7.53
2018-12-19T14:40:04.967Z,11.13
2018-12-19T14:42:31.400Z,8.33
2018-12-19T14:44:58.006Z,8.53
2018-12-19T14:47:24.359Z,9.53
2018-12-19T14:49:50.781Z,7.60
2018-12-19T14:52:17.216Z,8.43
2018-12-19T14:54:43.758Z,10.13
2018-12-19T14:57:10.107Z,7.70
2018-12-19T14:59:36.443Z,7.30
2018-12-19T15:02:02.993Z,9.37
2018-12-19T15:04:29.377Z,7.77
2018-12-19T15:06:55.875Z,7.67
2018-12-19T15:09:22.303Z,7.00
2018-12-19T15:11:48.633Z,7.67
2018-12-19T15:14:15.527Z,7.87
2018-12-19T15:16:42.025Z,8.50
2018-12-19T15:19:08.445Z,6.77
2018-12-19T15:21:34.973Z,7.63
2018-12-19T15:24:02.200Z,7.27
2018-12-19T15:26:29.807Z,8.93
2018-12-19T15:28:56.226Z,8.33
2018-12-19T15:31:23.118Z,7.57
2018-12-19T15:33:49.811Z,8.13
2018-12-19T15:36:16.550Z,7.83
2018-12-19T15:38:43.325Z,8.17
2018-12-19T15:41:09.706Z,7.37
2018-12-19T15:43:36.597Z,7.87
2018-12-19T15:46:03.139Z,9.43
2018-12-19T15:48:29.488Z,7.43
2018-12-19T15:50:55.893Z,8.23
2018-12-19T15:53:22.384Z,8.47
2018-12-19T15:55:49.387Z,8.00
2018-12-19T15:58:15.803Z,8.70
2018-12-19T16:00:42.256Z,7.87
2018-12-19T16:03:23.674Z,8.80
2018-12-19T16:05:50.074Z,9.63
2018-12-19T16:08:16.523Z,8.83
2018-12-19T16:10:43.048Z,8.63
2018-12-19T16:13:09.529Z,10.70
2018-12-19T16:15:36.109Z,9.57
2018-12-19T16:18:03.516Z,8.57
2018-12-19T16:20:30.005Z,10.60
2018-12-19T16:22:56.430Z,9.50
2018-12-19T16:25:23.269Z,10.17
2018-12-19T16:27:49.735Z,9.70
2018-12-19T16:30:16.101Z,10.40
2018-12-19T16:32:42.645Z,10.03
2018-12-19T16:35:09.140Z,10.50
2018-12-19T16:37:35.543Z,10.50
2018-12-19T16:40:02.178Z,10.53
2018-12-19T16:42:29.095Z,9.73
2018-12-19T16:44:55.645Z,11.63
2018-12-19T16:47:22.001Z,11.10
2018-12-19T16:49:48.546Z,11.50
2018-12-19T16:52:15.170Z,10.97
2018-12-19T16:54:41.701Z,10.73
2018-12-19T16:57:08.246Z,10.27
2018-12-19T16:59:34.748Z,11.10
2018-12-19T17:02:01.113Z,10.87
2018-12-19T17:04:28.188Z,10.57
2018-12-19T17:06:54.561Z,14.50
2018-12-19T17:09:20.978Z,11.73
2018-12-19T17:11:47.365Z,11.33
2018-12-19T17:14:28.731Z,11.40
2018-12-19T17:16:55.192Z,11.33
2018-12-19T17:19:21.625Z,13.17
2018-12-19T17:21:48.131Z,12.87
2018-12-19T17:24:14.595Z,13.70
2018-12-19T17:26:41.118Z,13.17
2018-12-19T17:29:07.580Z,12.03
2018-12-19T17:31:34.010Z,12.23
2018-12-19T17:34:00.517Z,10.87
2018-12-19T17:36:26.905Z,12.20
2018-12-19T17:38:54.335Z,12.37
2018-12-19T17:41:35.985Z,14.83
2018-12-19T17:44:02.542Z,12.53
2018-12-19T17:46:28.972Z,14.07
2018-12-19T17:48:55.370Z,12.17
2018-12-19T17:51:21.696Z,13.33
2018-12-19T17:53:48.161Z,13.60
2018-12-19T17:56:14.548Z,13.03
2018-12-19T17:58:40.955Z,13.50
2018-12-19T18:01:07.399Z,11.80
2018-12-19T18:03:33.904Z,12.63
2018-12-19T18:06:00.281Z,11.97
2018-12-19T18:08:27.670Z,11.57
2018-12-19T18:10:54.001Z,11.90
2018-12-19T18:13:20.409Z,11.30
2018-12-19T18:15:46.890Z,10.67
2018-12-19T18:18:13.225Z,10.60
2018-12-19T18:20:39.912Z,12.27
2018-12-19T18:23:06.312Z,11.87
2018-12-19T18:25:32.930Z,16.07
2018-12-19T18:27:59.389Z,14.10
2018-12-19T18:30:25.753Z,14.07
2018-12-19T18:32:52.169Z,14.77
2018-12-19T18:35:18.654Z,12.47
2018-12-19T18:37:45.131Z,12.97
2018-12-19T18:40:11.575Z,12.90
2018-12-19T18:42:37.941Z,11.60
2018-12-19T18:45:04.673Z,12.57
2018-12-19T18:47:31.233Z,12.50
2018-12-19T18:49:57.613Z,11.30
2018-12-19T18:52:24.060Z,11.63
2018-12-19T18:54:50.418Z,12.27
2018-12-19T18:57:17.832Z,16.97
2018-12-19T18:59:44.270Z,15.30
2018-12-19T19:02:10.648Z,12.50
2018-12-19T19:04:37.090Z,13.27
2018-12-19T19:07:04.178Z,13.47
2018-12-19T19:09:30.927Z,14.07
2018-12-19T19:11:57.900Z,13.03
2018-12-19T19:14:24.241Z,11.90
2018-12-19T19:16:50.752Z,11.90
2018-12-19T19:19:17.240Z,12.10
2018-12-19T19:21:44.892Z,11.97
2018-12-19T19:24:12.288Z,12.40
2018-12-19T19:26:38.766Z,12.47
2018-12-19T19:29:05.165Z,12.77
2018-12-19T19:31:31.518Z,12.67
2018-12-19T19:33:57.944Z,13.03
2018-12-19T19:36:24.337Z,13.50
2018-12-19T19:38:50.670Z,12.57
2018-12-19T19:41:17.239Z,13.17
2018-12-19T19:43:44.694Z,13.07
2018-12-19T19:46:11.277Z,14.27
2018-12-19T19:48:37.668Z,13.47
2018-12-19T19:51:04.618Z,14.00
2018-12-19T19:53:31.107Z,13.97
2018-12-19T19:55:58.607Z,14.57
2018-12-19T19:58:25.016Z,14.73
2018-12-19T20:00:51.498Z,13.30
2018-12-19T20:03:17.842Z,13.87
2018-12-19T20:05:44.309Z,16.48
2018-12-19T20:08:11.141Z,14.43
2018-12-19T20:10:37.943Z,13.80
2018-12-19T20:13:04.348Z,20.53
2018-12-19T20:15:30.684Z,14.07
2018-12-19T20:17:57.337Z,14.93
2018-12-19T20:20:23.916Z,14.63
2018-12-19T20:22:50.333Z,14.47
2018-12-19T20:25:20.954Z,15.70
2018-12-19T20:27:52.534Z,16.13
2018-12-19T20:30:19.070Z,15.93
2018-12-19T20:32:45.369Z,15.50
2018-12-19T20:35:11.770Z,16.67
2018-12-19T20:37:38.239Z,18.87
2018-12-19T20:40:05.015Z,16.60
2018-12-19T20:42:31.370Z,16.80
2018-12-19T20:44:57.798Z,16.80
2018-12-19T20:47:24.939Z,16.97
2018-12-19T20:49:51.446Z,17.47
2018-12-19T20:52:17.781Z,15.97
2018-12-19T20:54:44.125Z,16.30
2018-12-19T20:57:11.396Z,17.67
2018-12-19T20:59:48.043Z,15.30
2018-12-19T21:02:18.091Z,16.07
2018-12-19T21:04:44.534Z,17.07
2018-12-19T21:07:11.416Z,19.23
2018-12-19T21:09:42.064Z,17.53
2018-12-19T21:12:08.440Z,24.37
2018-12-19T21:14:35.135Z,17.87
2018-12-19T21:17:07.453Z,20.77
2018-12-19T21:19:33.899Z,18.60
2018-12-19T21:22:00.295Z,19.13
2018-12-19T21:24:26.647Z,21.10
2018-12-19T21:26:53.100Z,18.80
2018-12-19T21:29:19.498Z,20.97
2018-12-19T21:31:46.029Z,20.87
2018-12-19T21:34:12.444Z,18.53
2018-12-19T21:36:38.876Z,18.83
2018-12-19T21:39:07.425Z,18.70
2018-12-19T21:41:33.929Z,19.60
2018-12-19T21:44:00.302Z,20.17
2018-12-19T21:46:26.789Z,19.57
2018-12-19T21:48:53.420Z,19.77
2018-12-19T21:51:19.950Z,20.57
2018-12-19T21:53:47.147Z,20.97
2018-12-19T21:56:13.919Z,23.60
2018-12-19T21:58:40.574Z,19.87
2018-12-19T22:01:07.121Z,20.57
2018-12-19T22:03:33.670Z,21.93
2018-12-19T22:06:00.109Z,21.10
2018-12-19T22:08:26.660Z,23.07
2018-12-19T22:10:52.980Z,20.07
2018-12-19T22:13:19.376Z,21.80
2018-12-19T22:15:45.740Z,21.53
2018-12-19T22:18:18.113Z,19.80
2018-12-19T22:20:44.480Z,22.57
2018-12-19T22:23:11.004Z,21.70
2018-12-19T22:25:37.413Z,22.77
2018-12-19T22:28:03.793Z,23.10
2018-12-19T22:30:30.482Z,22.37
2018-12-19T22:32:57.035Z,22.23
2018-12-19T22:35:23.557Z,23.33
2018-12-19T22:38:05.016Z,21.03
2018-12-19T22:40:31.518Z,22.57
2018-12-19T22:42:57.913Z,23.13
2018-12-19T22:45:24.394Z,24.93
2018-12-19T22:47:50.868Z,22.90
2018-12-19T22:50:17.265Z,20.97
2018-12-19T22:52:43.722Z,24.57
2018-12-19T22:55:10.238Z,26.83
2018-12-19T23:00:33.314Z,25.47
2018-12-19T23:03:05.903Z,21.93
2018-12-19T23:05:38.117Z,23.00
2018-12-19T23:08:04.705Z,24.60
2018-12-19T23:10:31.057Z,23.70
2018-12-19T23:12:57.585Z,22.13
2018-12-19T23:15:24.300Z,23.17
2018-12-19T23:17:53.888Z,23.77
2018-12-19T23:20:20.252Z,23.57
2018-12-19T23:22:46.733Z,23.73
2018-12-19T23:25:13.717Z,23.97
2018-12-19T23:27:40.149Z,23.30
2018-12-19T23:30:06.977Z,23.80
2018-12-19T23:32:33.456Z,21.60
2018-12-19T23:34:59.825Z,21.00
2018-12-19T23:37:26.327Z,20.47
2018-12-19T23:42:45.139Z,20.30
2018-12-19T23:45:11.563Z,23.27
2018-12-19T23:47:38.012Z,21.03
2018-12-19T23:50:04.715Z,23.70
2018-12-19T23:52:31.210Z,18.07
2018-12-19T23:54:57.549Z,21.53
2018-12-19T23:57:24.068Z,21.83
2018-12-19T23:59:50.769Z,21.17
